createdAt,value
2022-09-05T00:01:01.647Z,23.8
2022-09-05T00:11:16.733Z,23.8
2022-09-05T00:24:17.893Z,23.7
2022-09-05T00:31:06.331Z,23.7
2022-09-05T00:41:01.671Z,23.6
2022-09-05T00:51:01.769Z,23.5
2022-09-05T01:01:01.664Z,23.5
2022-09-05T01:11:01.764Z,23.6
2022-09-05T01:21:01.659Z,23.6
2022-09-05T01:31:01.776Z,23.6
2022-09-05T01:41:19.022Z,23.6
2022-09-05T01:51:01.935Z,23.6
2022-09-05T02:01:24.983Z,23.5
2022-09-05T02:11:01.769Z,23.5
2022-09-05T02:21:01.877Z,23.5
2022-09-05T02:31:08.573Z,23.5
2022-09-05T02:45:04.499Z,23.5
2022-09-05T02:53:13.834Z,23.5
2022-09-05T03:01:01.924Z,23.5
2022-09-05T03:11:01.800Z,23.5
2022-09-05T03:21:08.882Z,23.5
2022-09-05T03:31:01.846Z,23.4
2022-09-05T03:41:01.909Z,23.4
2022-09-05T03:53:25.126Z,23.3
2022-09-05T04:01:03.642Z,23.3
2022-09-05T04:11:01.905Z,23.3
2022-09-05T04:21:01.963Z,23.4
2022-09-05T04:31:01.860Z,23.3
2022-09-05T04:41:01.957Z,23.3
2022-09-05T04:51:01.854Z,23.3
2022-09-05T05:02:38.128Z,23.3
2022-09-05T05:11:14.503Z,23.2
2022-09-05T05:21:02.007Z,23.2
2022-09-05T05:31:02.147Z,23.3
2022-09-05T05:41:01.946Z,23.2
2022-09-05T05:51:02.079Z,23.2
2022-09-05T06:01:01.955Z,23.2
2022-09-05T06:14:53.366Z,23.2
2022-09-05T06:22:08.133Z,23.2
2022-09-05T06:31:19.830Z,23.3
2022-09-05T06:41:01.963Z,23.3
2022-09-05T06:51:07.711Z,23.2
2022-09-05T07:01:02.276Z,23.2
2022-09-05T07:11:04.218Z,23.2
2022-09-05T07:21:12.278Z,23.2
2022-09-05T07:31:02.151Z,23.2
2022-09-05T07:41:02.157Z,23.2
2022-09-05T07:52:39.368Z,23.3
2022-09-05T08:01:02.239Z,23.2
2022-09-05T08:11:22.953Z,23.2
2022-09-05T08:21:02.184Z,23.3
2022-09-05T08:31:02.142Z,23.2
2022-09-05T08:41:02.186Z,23.2
2022-09-05T08:51:02.077Z,23.2
2022-09-05T09:01:04.484Z,23.3
2022-09-05T09:11:02.290Z,23.1
2022-09-05T09:21:02.187Z,23.1
2022-09-05T09:31:02.312Z,23.3
2022-09-05T09:41:03.136Z,23.4
2022-09-05T09:51:02.281Z,23.4
2022-09-05T10:01:02.196Z,23.4
2022-09-05T10:21:15.864Z,23.4
2022-09-05T10:32:39.097Z,23.4
2022-09-05T10:41:20.622Z,23.4
2022-09-05T10:51:02.268Z,23.5
2022-09-05T11:02:25.456Z,23.5
2022-09-05T11:11:02.295Z,23.5
2022-09-05T11:21:02.376Z,23.5
2022-09-05T11:31:02.360Z,23.6
2022-09-05T11:41:09.953Z,23.5
2022-09-05T11:51:02.282Z,23.5
2022-09-05T12:01:36.925Z,23.6
2022-09-05T12:11:02.285Z,23.6
2022-09-05T12:21:02.381Z,23.7
2022-09-05T12:31:12.011Z,23.9
2022-09-05T12:41:40.182Z,24.1
2022-09-05T12:51:02.479Z,24.2
2022-09-05T13:03:00.521Z,24.4
2022-09-05T13:12:00.847Z,24.3
2022-09-05T13:21:02.377Z,24.6
2022-09-05T13:33:20.573Z,24.8
2022-09-05T13:41:02.571Z,24.6
2022-09-05T13:51:02.467Z,24.5
2022-09-05T14:01:02.415Z,24.4
2022-09-05T14:11:02.488Z,24.5
2022-09-05T14:21:02.588Z,24.5
2022-09-05T14:31:19.779Z,24.5
2022-09-05T14:41:02.733Z,24.3
2022-09-05T14:51:02.507Z,24.1
2022-09-05T15:02:47.078Z,24
2022-09-05T15:11:25.232Z,24.1
2022-09-05T15:21:02.605Z,24.1
2022-09-05T15:31:02.539Z,24
2022-09-05T15:41:02.638Z,23.9
2022-09-05T15:51:02.708Z,23.9
2022-09-05T16:01:02.724Z,24
2022-09-05T16:11:21.453Z,23.9
2022-09-05T16:23:21.444Z,23.9
2022-09-05T16:31:02.822Z,24
2022-09-05T16:41:02.606Z,23.8
2022-09-05T16:51:13.591Z,23.9
2022-09-05T17:01:02.753Z,24.5
2022-09-05T17:11:03.435Z,24.9
2022-09-05T17:21:02.800Z,24.8
2022-09-05T17:41:02.791Z,24.4
2022-09-05T17:51:02.687Z,24.4
2022-09-05T18:01:02.887Z,24.3
2022-09-05T18:11:02.695Z,24.1
2022-09-05T18:31:02.673Z,23.9
2022-09-05T18:41:02.780Z,23.7
2022-09-05T18:51:12.902Z,23.8
2022-09-05T19:01:02.829Z,23.5
2022-09-05T19:11:26.915Z,23
2022-09-05T19:21:03.370Z,23.4
2022-09-05T19:36:47.618Z,23.5
2022-09-05T19:44:51.924Z,23.7
2022-09-05T19:51:02.895Z,23.6
2022-09-05T20:01:02.830Z,23.5
2022-09-05T20:11:02.870Z,23.7
2022-09-05T20:21:02.954Z,23.5
2022-09-05T20:31:03.088Z,23.5
2022-09-05T20:43:26.258Z,23.5
2022-09-05T20:54:12.467Z,23.5
2022-09-05T21:01:20.706Z,23.5
2022-09-05T21:11:02.849Z,23.3
2022-09-05T21:40:59.087Z,23.5
2022-09-05T21:50:58.980Z,23.7
2022-09-05T22:00:59.318Z,23.7
2022-09-05T22:10:59.002Z,23.6
2022-09-05T22:21:24.651Z,23.4
2022-09-05T22:30:59.056Z,23.4
2022-09-05T22:40:59.104Z,23.4
2022-09-05T22:50:59.184Z,23.5
2022-09-05T23:00:59.099Z,23.3
2022-09-05T23:10:59.171Z,23.3
2022-09-05T23:20:59.095Z,23.3
2022-09-05T23:30:59.194Z,23.3
2022-09-05T23:40:59.092Z,23.3
2022-09-05T23:50:59.161Z,23.3
